Timberlake, Virginia
Current Conditions -  °F | °C
As of 7:54 AM on Wednesday 22 Oct 2014 (Local Time) from KLYH Reporting Station
Scattered Clouds Scattered Clouds  
Wind Chill: 50°   Ceiling: Unl
Heat Index: 50°   Visibility: 10mi
Dew Point: 40°   Wind: 5mph
Humidity: 68%   Direction: NA
Pressure: 29.99"   Gusts: NA
Location:  37.32°N, 79.26°W
Report Text: KLYH 221154Z VRB04KT 10SM FEW070 SCT100 10/04 A2999 RMK AO2 SLP154 60000 70003 T01000044 10100 20050 53015
Loading
Personal Weather Stations






























Interactive Weather Map
Tropical Storm Tracking
New forecast layout! Learn more

10-Day Weather Forecast

Advertisements
Track Severe Weather on mobile